BAND Game Winners -   (pairs events only)   
Swiss Division Game Player Player1 Pct MP x Score Data Tables  
N  299er  2019-09-22 Sun 299er B Aft  Kim Temple  Jon Paul Temple 75.28 1.38 OA 135.5 2019-09-22 11  Hands/Analysis/BM
N  Open  2019-09-22 Sun Open A Aft  Norman Beck  Joan Jackson 62.2 4.67 OA 104.5 2019-09-22 11  Hands/Analysis/BM
N  Open  2019-09-21 Sat Open A Morn  Jane Kirby  Anita Platt 61.36 3.35 187 2019-09-21 13  Hands/Analysis/BM
N  Open  2019-09-20 Fri Open F Aft  Nancy Fellman  Jennifer Rao 67.52 5.54 OA 113.43 2019-09-20 9  Hands/Analysis/BM
N  499er  2019-09-20 Fri 499er E Aft  Mike Carter  Allan Chernov 64.92 1.53 OA 109.07 2019-09-20 11  Hands/Analysis/BM
N  Open  2019-09-20 Fri Open A Aft  Milton Neher  Michael Schreiber 64.88 4.16 OA 109 2019-09-20 8  Hands/Analysis/BM
N  Supervised  2019-09-20 Fri Supervised Duplicate D Morn  Martha Scupham  Gail Lenehan 57.69 0.15 A 15 2019-09-20 3  Hands/Analysis/BM
N  Lesson Game  2019-09-19 Thu Lesson Game I Aft  Sharon Welsh  Margo Glater 71.25 0.45 A 57 2019-09-19 9  Hands/Analysis/BM
N  299er  2019-09-19 Thu 299er B Aft  John Everhart  Anita Everhart 64.72 1.58 OA 116.5 2019-09-19 14  Hands/Analysis/BM
N  Open  2019-09-19 Thu Open A Aft  Barbara Taylor  Anita Platt 66.48 6 OA 175.5 2019-09-19 14  Hands/Analysis/BM
N  Open  2019-09-18 Wed Open A Eve  Ruthie Shor  Jane Kirby 54 2.92 O 31 2019-09-18 3  Hands/Analysis/BM
N  499er  2019-09-18 Wed 499er K Eve  Steven Buholz  Feza Buyukdura 70 1.24 OA 73.5 2019-09-18 7  Hands/Analysis/BM
N  Open  2019-09-18 Wed Open F Aft  Stephen Sinclair  Marcus Poe Jr 64.29 5.98 OA 108 2019-09-18 9  Hands/Analysis/BM
N  499er  2019-09-18 Wed 499er E Aft  Harendra Desai  Geeta Desai 65.33 0.66 A 96.03 2019-09-18 8  Hands/Analysis/BM
N  49er  2019-09-18 Wed 49er C Aft  Susan Stone  Nancy Moore 63.67 0.82 OA 40.75 2019-09-18 6  Hands/Analysis/BM
N  Open  2019-09-18 Wed Open A Aft  Betsey Lazard  Barbara Hamman 61.01 3.36 OA 102.5 2019-09-18 8  Hands/Analysis/BM
N  Open  2019-09-17 Tues Open A Eve  Jim O'Regan  Hellen Revelle 63 1.9 O 45.5 2019-09-17 3  Hands/Analysis/BM
N  299er  2019-09-17 Tues 299er B Aft  Denise Patterson  Cecily Hutchison 67.19 1.44 OA 120.94 2019-09-17 12  Hands/Analysis/BM
N  Open  2019-09-17 Tues Open A Aft  Milton Neher  Michael Schreiber 71.59 5.4 OA 189 2019-09-17 15  Hands/Analysis/BM
N  Lesson Game  2019-09-17 Tue Lesson Game I Morn  William Cantrell  Julia Cantrell 85 0.15 A 17 2019-09-17 3  Hands/Analysis/BM
N  Open  2019-09-16 Mon Open A Eve  Jack Borenstein  Bill Osborn 63.54 2.04 O 30.5 2019-09-16 4  Hands/Analysis/BM
N  49er  2019-09-16 Mon 49er C Aft  George Conant  Charles Pavlue 63.89 0.66 OA 23 2019-09-16 3  Hands/Analysis/BM
N  Open  2019-09-16 Mon Open A Aft  Milton Neher  Michael Schreiber 61.59 4.81 OA 162.59 2019-09-16 14  Hands/Analysis/BM
N  749er  2019-09-16 Mon 749er K Aft  Lacy Peterson  Carolyn Baker 60.83 1.23 OA 73 2019-09-16 6  Hands/Analysis/BM
N  Open  2019-09-16 Mon Open L Morn  Shelley Early  Linda Scott 64 1.17 A 32 2019-09-16 3  Hands/Analysis
N  299er  2019-09-15 Sun 299er B Aft  Linda Cerf  Jerelyn Lehman 63.61 1.38 OA 114.5 2019-09-15 11  Hands/Analysis/BM
N  Open  2019-09-15 Sun Open A Aft  Michael Schreiber  Amy Downing 66.84 4.52 OA 112.29 2019-09-15 10  Hands/Analysis/BM
N  Open  2019-09-14 Sat Open A Morn  Jay Gibson  Florence Beaird 60.42 3.65 O 169.5 2019-09-14 15  Hands/Analysis/BM
N  499er  2019-09-13 Fri 499er E Aft  Denise Patterson  Darlene Campbell 59.54 1.31 OA 71.45 2019-09-13 8  Hands/Analysis/BM
N  49er  2019-09-13 Fri 49er C Aft  George Conant  Charles Pavlue 46 0.21 46 2019-09-13 2  Hands/Analysis
N  Open  2019-09-13 Fri Open A Aft  Jack Borenstein  Bill Osborn 64.39 4.81 OA 170 2019-09-13 13  Hands/Analysis/BM
N  Supervised  2019-09-13 Fri Supervised Duplicate D Morn  Sarah Feagin  Patti Tate 70.83 0.15 17 2019-09-13 3  Hands/Analysis/BM
N  Lesson Game  2019-09-12 Thu Lesson Game I Aft  Steve Levy  Joanne Levy 65.08 0.4 A 41 2019-09-12 8  Hands/Analysis/BM
N  299er  2019-09-12 Thu 299er B Aft  Rex Bruns  Curt McIntyre 60.24 1.51 OA 108.44 2019-09-12 13  Hands/Analysis/BM
N  Open  2019-09-12 Thu Open A Aft  Jo England  Jack Borenstein 64.93 5.25 OA 171.41 2019-09-12 13  Hands/Analysis/BM
N  499er  2019-09-11 Wed 499er E Eve  Melanie Munnell  Cordelia Cottingim 62.5 1.24 OA 75 2019-09-11 7  Hands/Analysis/BM
N  Open  2019-09-11 Wed Open A Eve  Bill McCarty  Ari Sippola 79 3.21 O 86 2019-09-11 5  Hands/Analysis/BM
N  Open  2019-09-11 Wed Open F Aft  David Nurenberg  Bill Osborn 63.69 3.72 OA 107 2019-09-11 8  Hands/Analysis/BM
N  499er  2019-09-11 Wed 499er E Aft  Deanna Davis  Allan Chernov 68.45 1.31 OA 115 2019-09-11 8  Hands/Analysis/BM
N  Open  2019-09-11 Wed Open A Aft  Connie Martin  Barry Martin 65.3 4.96 OA 109.71 2019-09-11 8  Hands/Analysis/BM
N  Open  2019-09-10 Tues Open A Eve  Roslyn Miller  Cathy Mullen 58.33 1.31 52.5 2019-09-10 4  Hands/Analysis/BM
N  299er  2019-09-10 Tues 299er B Aft  Robin Bohbot  Janet Sheppard 69.63 1.58 OA 125.33 2019-09-10 14  Hands/Analysis/BM
N  Open  2019-09-10 Tues Open A Aft  John Spessard  Bill Osborn 74.71 5.4 OA 197.23 2019-09-10 13  Hands/Analysis/BM
N  Lesson Game  2019-09-10 Tue Lesson Game I Morn  Sharon Welsh  Margo Glater 72.22 0.25 A 26 2019-09-10 5  Hands/Analysis/BM
N  Open  2019-09-09 Mon Open A Eve  Kelly Austin  Jeff Lyon 3 0.78 3 2019-09-09 2  Hands/Analysis
N  49er  2019-09-09 Mon 49er C Aft  Trish Hill  Mary Beecherl 54 0.21 54 2019-09-09 2  Hands/Analysis
N  Open  2019-09-09 Mon Open A Aft  J Fletcher  Clint Schuhmacher 60.71 3.65 OA 102 2019-09-09 10  Hands/Analysis/BM
N  749er  2019-09-09 Mon 749er K Aft  Sherill Baack  Louise Bowman 57.24 1.15 OA 52.66 2019-09-09 5  Hands/Analysis/BM
N  299er  2019-09-08 Sun 299er B Aft  Patty Bozeman  Gail Wingfield 66.94 1.58 OA 120.5 2019-09-08 14  Hands/Analysis/BM
N  Open  2019-09-08 Sun Open A Aft  Lynn Cooper  Barry Cooper 61.63 5.54 OA 192.28 2019-09-08 14  Hands/Analysis/BM
N  Open  2019-09-07 Sat Open A Morn  Bob Hamman  Barbara Hamman 65.96 3.21 O 142.48 2019-09-07 12  Hands/Analysis/BM
N  499er  2019-09-06 Fri 499er E Aft  Kent Baxter  Ben Schkolne 62.16 1.39 OA 104.43 2019-09-06 9  Hands/Analysis/BM
N  49er  2019-09-06 Fri 49er C Aft  Robin Yaklin  Bob Trimble 66.66 0.66 OA 21.33 2019-09-06 3  Hands/Analysis/BM
N  Open  2019-09-06 Fri Open A Aft  Peggy Sutherlin  Betsey Lazard 63.82 5.25 OA 199.11 2019-09-06 14  Hands/Analysis/BM
N  Tournament  2019-09-06 Prestonwood Tournament M Morn  Shirley Poska  Sharon Lampton 65.18 2.77 OA 123.19 2019-09-06 9  Hands/Analysis
N  Lesson Game  2019-09-05 Thu Lesson Game I Aft  June Bayne  Ann Lewis 61.11 0.35 A 33 2019-09-05 7  Hands/Analysis/BM
N  299er  2019-09-05 Thu 299er B Aft  Linda Robertson  B. K. Sloan 63.61 1.32 OA 114.5 2019-09-05 13  Hands/Analysis/BM
N  Open  2019-09-05 Thu Open A Aft  Rosalind Smith  Frank Durante 69.6 4.96 OA 150.34 2019-09-05 11  Hands/Analysis/BM
N  Open  2019-09-04 Wed Open A Eve  Susan Bates  Floyd Gerwig 54.86 3.06 O 49.5 2019-09-04 4  Hands/Analysis/BM
N  499er  2019-09-04 Wed 499er K Eve  Yuri Lemeshev  Genny Lemeshev 60.55 1.24 OA 63.58 2019-09-04 7  Hands/Analysis/BM
N  499er  2019-09-04 Wed 499er E Aft  Deanna Davis  Allan Chernov 64.17 1.24 OA 77 2019-09-04 7  Hands/Analysis/BM
N  49er  2019-09-04 Wed 49er C Aft  Steve Ray  Phil Ray 57.13 0.71 OA 25.71 2019-09-04 4  Hands/Analysis/BM
N  Open  2019-09-04 Wed Open A Aft  Rolf Paul  John Spessard 62.28 5.25 OA 164.41 2019-09-04 15  Hands/Analysis/BM
N  299er  2019-09-03 Tues 299er B Aft  Michael Conner  Cathy Bard 63.89 1.51 OA 115 2019-09-03 13  Hands/Analysis/BM
N  Open  2019-09-03 Tues Open A Aft  David Nurenberg  B Paul Hirsch 65.89 4.96 OA 142.32 2019-09-03 11  Hands/Analysis/BM
N  Lesson Game  2019-09-03 Tue Lesson Game I Morn  William Cantrell  Julia Cantrell 57.5 0.15 A 11.5 2019-09-03 3  Hands/Analysis/BM